Aérodrome :
LOGIN :

S'inscrire | Disclaimer

   EN    FR    IT 

 










Légende :    VFR   VFR Marginal   IFR   IFR Intensif   IFR Très Intensif
Visi : 
Plafond : 
>= 8 km
>= 3000ft
5 à 8 km
1000 à 3000 ft
1500m à 5 km
500 à 1000 ft
800 à 1500m
200 à 500 ft
< 800m
< 200 ft
Symboles :   Orages  Brouillard  Fortes neiges  Fortes précipitations  Vent > 20 kt
SIGMETs :   Divers  Orages  Givrage  Turbulence  Onde Orograph.  Cendres Volcan.






- Altitude de l'aérodrome : 656 ft


UUBC - Grabtsevo

DERNIER METAR :
  • 020700Z 24005MPS 9999 -SN BKN011 OVC020 02/00 Q1005 R31/290150 NOSIG RMK QFE737/0982

METARs EXPIRÉS :
  • 020630Z 23005MPS 9000 -SN BKN013 OVC020 02/M00 Q1005 R31/290150 NOSIG RMK QFE737/0982
  • 020600Z 23006MPS 9000 -SN BKN012 OVC020 02/M00 Q1004 R31/290150 NOSIG RMK QFE737/0982
  • 020530Z 22004MPS 190V250 9999 -SN BKN012 OVC020 02/M01 Q1004 R31/290150 NOSIG RMK QFE736/0982
  • 020500Z 22004MPS 170V260 9999 BKN013 OVC020 02/M01 Q1004 R31/290150 NOSIG RMK QFE736/0982
  • 020430Z 22004MPS 9999 BKN013 OVC020 02/M01 Q1004 R31/290150 NOSIG RMK QFE736/0982
  • 020400Z 23003MPS 9999 SCT010 OVC020 02/M01 Q1004 R31/290150 NOSIG RMK QFE736/0982

TAF TAF UUBC
Valide du 02 à 06h jusqu'au 02 à 15h UTC


020451Z 0206/0215 24007MPS 9999 BKN015
TEMPO 0206/0212 3100 -SHSNRA SCT006 BKN011CB



MET'MAP, la Météo Aéronautique d'un coup d'oeil ! - Copyright ORBIFLY Décembre 2007 - Disclaimer

ORBIFLY MET'MAP TEAM :

Programmation & Développement : Alexandra Zaïnal
Sur une idée originale de : Baudouin d'Aumeries
Assistance à la programmation : Marc-Olivier Méhu
Soutien technique & logistique : Manuel Goepfert

Contact : metmap@orbifly.com




SOURCES & CREDITS :

   NOAA